CU-0036 weather

Hatuey Airport
Camag├╝ey, Cuba

Public forecast

Using degrees Celsius for public forecast. Weather courtesy of forecast.io.

Closest aviation weather report (METAR) to Hatuey Airport

Closest report is Ignacio Agramonte International Airport, 21.4 nm (39.6 km) NW. Retrieved 2019/10/15 19:54 UTC (54 minutes ago):

MUCM 151954Z 05008KT 010V100 9000 FEW018CB SCT020 32/23 Q1013

Closest aviation forecast (TAF) to Hatuey Airport

Closest forecast is Ignacio Agramonte International Airport, 21.4 nm (39.6 km) NW. Retrieved 2019/10/15 18:07 UTC (3 hours ago):

TAF MUCM 151700Z 1518/1618 07007KT 9000 SCT018 TEMPO 1518/1524 4000 SHRA SCT020CB BKN020 BECMG 1601/1603 VRB03KT